createdAt,value
2022-12-15T00:00:35.075Z,-1.64
2022-12-15T00:01:36.486Z,-1.65
2022-12-15T00:02:37.797Z,-1.64
2022-12-15T00:03:39.329Z,-1.63
2022-12-15T00:04:40.643Z,-1.63
2022-12-15T00:05:41.845Z,-1.63
2022-12-15T00:06:43.104Z,-1.62
2022-12-15T00:07:44.346Z,-1.62
2022-12-15T00:08:45.538Z,-1.61
2022-12-15T00:09:46.718Z,-1.61
2022-12-15T00:10:47.907Z,-1.61
2022-12-15T00:11:49.278Z,-1.61
2022-12-15T00:12:50.532Z,-1.59
2022-12-15T00:13:51.762Z,-1.58
2022-12-15T00:14:52.941Z,-1.58
2022-12-15T00:15:54.202Z,-1.59
2022-12-15T00:16:55.482Z,-1.58
2022-12-15T00:17:56.889Z,-1.59
2022-12-15T00:18:58.072Z,-1.60
2022-12-15T00:19:59.366Z,-1.60
2022-12-15T00:21:01.334Z,-1.62
2022-12-15T00:22:02.522Z,-1.61
2022-12-15T00:23:10.948Z,-1.61
2022-12-15T00:24:12.137Z,-1.59
2022-12-15T00:25:13.386Z,-1.59
2022-12-15T00:26:14.678Z,-1.59
2022-12-15T00:27:15.892Z,-1.58
2022-12-15T00:28:17.156Z,-1.57
2022-12-15T00:29:18.408Z,-1.58
2022-12-15T00:30:19.601Z,-1.56
2022-12-15T00:31:20.868Z,-1.58
2022-12-15T00:32:22.809Z,-1.57
2022-12-15T00:33:24.010Z,-1.58
2022-12-15T00:34:25.191Z,-1.57
2022-12-15T00:35:26.432Z,-1.58
2022-12-15T00:36:27.788Z,-1.58
2022-12-15T00:37:29.035Z,-1.57
2022-12-15T00:38:30.310Z,-1.60
2022-12-15T00:39:31.559Z,-1.60
2022-12-15T00:40:32.788Z,-1.59
2022-12-15T00:41:34.038Z,-1.60
2022-12-15T00:42:35.310Z,-1.59
2022-12-15T00:43:36.933Z,-1.59
2022-12-15T00:44:38.207Z,-1.60
2022-12-15T00:45:39.556Z,-1.59
2022-12-15T00:46:40.830Z,-1.57
2022-12-15T00:47:42.247Z,-1.53
2022-12-15T00:48:43.793Z,-1.54
2022-12-15T00:49:44.989Z,-1.53
2022-12-15T00:50:46.178Z,-1.56
2022-12-15T00:51:47.377Z,-1.57
2022-12-15T00:52:48.559Z,-1.58
2022-12-15T00:53:49.855Z,-1.58
2022-12-15T00:54:51.108Z,-1.60
2022-12-15T00:55:52.333Z,-1.59
2022-12-15T00:56:53.582Z,-1.59
2022-12-15T00:57:54.812Z,-1.59
2022-12-15T00:58:56.200Z,-1.58
2022-12-15T00:59:57.881Z,-1.58
2022-12-15T01:01:05.609Z,-1.58
2022-12-15T01:02:06.939Z,-1.58
2022-12-15T01:03:16.828Z,-1.59
2022-12-15T01:04:18.542Z,-1.61
2022-12-15T01:05:19.891Z,-1.61
2022-12-15T01:06:21.230Z,-1.59
2022-12-15T01:07:22.406Z,-1.61
2022-12-15T01:08:23.633Z,-1.62
2022-12-15T01:09:24.895Z,-1.61
2022-12-15T01:10:26.069Z,-1.61
2022-12-15T01:11:27.313Z,-1.63
2022-12-15T01:12:28.594Z,-1.62
2022-12-15T01:13:30.023Z,-1.62
2022-12-15T01:14:31.955Z,-1.64
2022-12-15T01:15:36.019Z,-1.65
2022-12-15T01:16:37.249Z,-1.64
2022-12-15T01:17:38.495Z,-1.65
2022-12-15T01:18:39.791Z,-1.64
2022-12-15T01:19:41.102Z,-1.64
2022-12-15T01:20:42.515Z,-1.63
2022-12-15T01:21:43.765Z,-1.62
2022-12-15T01:22:45.910Z,-1.62
2022-12-15T01:23:47.142Z,-1.61
2022-12-15T01:24:48.394Z,-1.63
2022-12-15T01:25:52.498Z,-1.63
2022-12-15T01:26:53.792Z,-1.62
2022-12-15T01:27:55.093Z,-1.63
2022-12-15T01:28:56.282Z,-1.64
2022-12-15T01:29:57.537Z,-1.65
2022-12-15T01:30:58.936Z,-1.65
2022-12-15T01:32:00.275Z,-1.65
2022-12-15T01:33:01.555Z,-1.65
2022-12-15T01:34:02.925Z,-1.64
2022-12-15T01:35:04.702Z,-1.62
2022-12-15T01:36:06.005Z,-1.62
2022-12-15T01:37:07.255Z,-1.63
2022-12-15T01:38:08.554Z,-1.65
2022-12-15T01:39:09.784Z,-1.70
2022-12-15T01:40:14.785Z,-1.69
2022-12-15T01:41:16.078Z,-1.70
2022-12-15T01:42:17.342Z,-1.69
2022-12-15T01:43:19.880Z,-1.69
2022-12-15T01:44:22.903Z,-1.63
2022-12-15T01:45:24.108Z,-1.64
2022-12-15T01:46:25.403Z,-1.64
2022-12-15T01:47:33.999Z,-1.66
2022-12-15T01:48:40.340Z,-1.69
2022-12-15T01:49:42.747Z,-1.69
2022-12-15T01:50:46.505Z,-1.69
2022-12-15T01:51:49.747Z,-1.67
2022-12-15T01:52:52.825Z,-1.67
2022-12-15T01:54:06.652Z,-1.71
2022-12-15T01:55:08.327Z,-1.71
2022-12-15T01:56:10.633Z,-1.73
2022-12-15T01:57:18.725Z,-1.73
2022-12-15T01:58:20.485Z,-1.73
2022-12-15T01:59:26.414Z,-1.73
2022-12-15T02:00:28.046Z,-1.72
2022-12-15T02:01:29.938Z,-1.72
2022-12-15T02:02:38.298Z,-1.71
2022-12-15T02:03:42.790Z,-1.71
2022-12-15T02:04:44.889Z,-1.71
2022-12-15T02:05:46.660Z,-1.70
2022-12-15T02:06:47.932Z,-1.68
2022-12-15T02:07:49.149Z,-1.70
2022-12-15T02:08:52.557Z,-1.71
2022-12-15T02:09:55.674Z,-1.70
2022-12-15T02:11:07.645Z,-1.71
2022-12-15T02:12:11.785Z,-1.71
2022-12-15T02:13:21.416Z,-1.69
2022-12-15T02:14:30.723Z,-1.70
2022-12-15T02:15:37.959Z,-1.71
2022-12-15T02:16:57.807Z,-1.72
2022-12-15T02:18:04.865Z,-1.79
2022-12-15T02:19:20.858Z,-1.83
2022-12-15T02:20:33.605Z,-1.84
2022-12-15T02:21:46.847Z,-1.84
2022-12-15T02:22:54.332Z,-1.84
2022-12-15T02:24:14.426Z,-1.82
2022-12-15T02:25:34.195Z,-1.77
2022-12-15T02:26:54.745Z,-1.76
2022-12-15T02:28:03.874Z,-1.78
2022-12-15T02:29:05.085Z,-1.76
2022-12-15T02:30:06.291Z,-1.76
2022-12-15T02:31:10.927Z,-1.78
2022-12-15T02:32:14.093Z,-1.78
2022-12-15T02:33:25.776Z,-1.74
2022-12-15T02:34:34.460Z,-1.78
2022-12-15T02:35:50.683Z,-1.80
2022-12-15T02:36:56.264Z,-1.79
2022-12-15T02:37:57.460Z,-1.79
2022-12-15T02:38:58.766Z,-1.78
2022-12-15T02:40:00.394Z,-1.77
2022-12-15T02:41:02.994Z,-1.76
2022-12-15T02:42:04.312Z,-1.75
2022-12-15T02:43:06.816Z,-1.74
2022-12-15T02:44:11.317Z,-1.73
2022-12-15T02:45:13.894Z,-1.73
2022-12-15T02:46:21.558Z,-1.74
2022-12-15T02:47:34.136Z,-1.76
2022-12-15T02:48:47.583Z,-1.79
2022-12-15T02:49:57.983Z,-1.78
2022-12-15T02:51:10.722Z,-1.76
2022-12-15T02:52:30.872Z,-1.76
2022-12-15T02:53:40.401Z,-1.81
2022-12-15T02:54:59.794Z,-1.86
2022-12-15T02:56:00.973Z,-1.85
2022-12-15T02:57:28.189Z,-1.92
2022-12-15T02:58:48.208Z,-1.93
2022-12-15T03:00:00.528Z,-1.95
2022-12-15T03:01:11.589Z,-1.91
2022-12-15T03:02:13.905Z,-1.89
2022-12-15T03:03:17.475Z,-1.89
2022-12-15T03:04:19.066Z,-1.88
2022-12-15T03:05:21.704Z,-1.89
2022-12-15T03:06:24.345Z,-1.88
2022-12-15T03:07:26.961Z,-1.89
2022-12-15T03:08:28.337Z,-1.86
2022-12-15T03:09:32.828Z,-1.88
2022-12-15T03:10:34.079Z,-1.88
2022-12-15T03:11:36.497Z,-1.89
2022-12-15T03:12:37.746Z,-1.88
2022-12-15T03:13:39.011Z,-1.87
2022-12-15T03:14:40.258Z,-1.90
2022-12-15T03:15:41.499Z,-1.89
2022-12-15T03:16:42.806Z,-1.90
2022-12-15T03:17:44.307Z,-1.92
2022-12-15T03:18:45.522Z,-1.94
2022-12-15T03:19:46.699Z,-1.93
2022-12-15T03:20:51.126Z,-1.90
2022-12-15T03:21:52.776Z,-1.90
2022-12-15T03:22:53.999Z,-1.88
2022-12-15T03:23:55.318Z,-1.89
2022-12-15T03:24:56.541Z,-1.86
2022-12-15T03:25:57.766Z,-1.87
2022-12-15T03:26:59.095Z,-1.85
2022-12-15T03:28:00.330Z,-1.84
2022-12-15T03:29:01.805Z,-1.84
2022-12-15T03:30:03.715Z,-1.85
2022-12-15T03:31:04.995Z,-1.83
2022-12-15T03:32:06.672Z,-1.84
2022-12-15T03:33:07.990Z,-1.83
2022-12-15T03:34:09.190Z,-1.83
2022-12-15T03:35:10.421Z,-1.85
2022-12-15T03:36:11.643Z,-1.87
2022-12-15T03:37:12.868Z,-1.86
2022-12-15T03:38:14.126Z,-1.86
2022-12-15T03:39:15.422Z,-1.82
2022-12-15T03:40:16.753Z,-1.83
2022-12-15T03:41:18.017Z,-1.78
2022-12-15T03:42:19.305Z,-1.79
2022-12-15T03:43:20.555Z,-1.79
2022-12-15T03:44:22.049Z,-1.80
2022-12-15T03:45:24.624Z,-1.83
2022-12-15T03:46:25.867Z,-1.82
2022-12-15T03:47:27.115Z,-1.74
2022-12-15T03:48:28.363Z,-1.79
2022-12-15T03:49:29.625Z,-1.81
2022-12-15T03:50:30.865Z,-1.85
2022-12-15T03:51:32.106Z,-1.87
2022-12-15T03:52:33.330Z,-1.92
2022-12-15T03:53:34.768Z,-1.93
2022-12-15T03:54:36.001Z,-1.93
2022-12-15T03:55:37.242Z,-1.94
2022-12-15T03:56:38.494Z,-1.93
2022-12-15T03:57:39.684Z,-1.95
2022-12-15T03:58:41.010Z,-1.94
2022-12-15T03:59:42.204Z,-1.95
2022-12-15T04:00:43.800Z,-1.95
2022-12-15T04:01:46.664Z,-1.97
2022-12-15T04:02:49.923Z,-1.97
2022-12-15T04:03:55.525Z,-1.99
2022-12-15T04:04:59.798Z,-1.96
2022-12-15T04:06:00.987Z,-1.96
2022-12-15T04:07:02.237Z,-1.98
2022-12-15T04:08:03.514Z,-2.01
2022-12-15T04:09:04.811Z,-1.99
2022-12-15T04:10:06.248Z,-1.95
2022-12-15T04:11:07.435Z,-1.91
2022-12-15T04:12:10.629Z,-1.93
2022-12-15T04:13:12.198Z,-1.90
2022-12-15T04:14:13.410Z,-1.89
2022-12-15T04:15:14.744Z,-1.92
2022-12-15T04:16:19.865Z,-1.91
2022-12-15T04:17:21.660Z,-1.92
2022-12-15T04:18:22.890Z,-1.90
2022-12-15T04:19:24.087Z,-1.94
2022-12-15T04:20:25.320Z,-1.95
2022-12-15T04:21:26.502Z,-1.98
2022-12-15T04:22:27.725Z,-2.00
2022-12-15T04:23:29.301Z,-2.01
2022-12-15T04:24:30.946Z,-1.96
2022-12-15T04:25:32.147Z,-1.97
2022-12-15T04:26:33.321Z,-1.96
2022-12-15T04:27:34.694Z,-1.95
2022-12-15T04:28:35.990Z,-1.96
2022-12-15T04:29:37.165Z,-1.96
2022-12-15T04:30:40.012Z,-1.99
2022-12-15T04:31:42.343Z,-2.00
2022-12-15T04:32:43.558Z,-1.98
2022-12-15T04:33:46.188Z,-1.95
2022-12-15T04:34:47.437Z,-1.95
2022-12-15T04:35:49.951Z,-1.89
2022-12-15T04:36:52.674Z,-1.89
2022-12-15T04:37:53.949Z,-1.93
2022-12-15T04:38:55.203Z,-1.95
2022-12-15T04:39:56.954Z,-1.90
2022-12-15T04:40:58.260Z,-1.92
2022-12-15T04:42:00.714Z,-1.94
2022-12-15T04:43:02.027Z,-1.96
2022-12-15T04:44:03.606Z,-1.96
2022-12-15T04:45:06.010Z,-1.95
2022-12-15T04:46:07.449Z,-1.91
2022-12-15T04:47:08.854Z,-1.93
2022-12-15T04:48:10.126Z,-1.95
2022-12-15T04:49:11.318Z,-1.95
2022-12-15T04:50:12.550Z,-1.95
2022-12-15T04:51:13.746Z,-1.86
2022-12-15T04:52:15.040Z,-1.93
2022-12-15T04:53:17.157Z,-1.98
2022-12-15T04:54:18.333Z,-2.00
2022-12-15T04:55:19.542Z,-1.98
2022-12-15T04:56:20.741Z,-1.99
2022-12-15T04:57:21.933Z,-1.97
2022-12-15T04:58:23.141Z,-1.94
2022-12-15T04:59:24.326Z,-1.93
2022-12-15T05:00:25.535Z,-1.88
2022-12-15T05:01:26.839Z,-1.89
2022-12-15T05:02:28.234Z,-1.86
2022-12-15T05:03:29.478Z,-1.87
2022-12-15T05:04:30.726Z,-1.85
2022-12-15T05:05:32.050Z,-1.81
2022-12-15T05:06:33.282Z,-1.81
2022-12-15T05:07:34.480Z,-1.77
2022-12-15T05:08:35.851Z,-1.75
2022-12-15T05:09:37.049Z,-1.78
2022-12-15T05:10:38.274Z,-1.76
2022-12-15T05:11:39.485Z,-1.75
2022-12-15T05:12:40.656Z,-1.79
2022-12-15T05:13:41.865Z,-1.81
2022-12-15T05:14:43.132Z,-1.80
2022-12-15T05:15:44.390Z,-1.83
2022-12-15T05:16:45.669Z,-1.84
2022-12-15T05:17:46.932Z,-1.84
2022-12-15T05:18:48.164Z,-1.84
2022-12-15T05:19:49.384Z,-1.81
2022-12-15T05:20:50.637Z,-1.79
2022-12-15T05:21:51.895Z,-1.79
2022-12-15T05:22:56.716Z,-1.81
2022-12-15T05:23:57.906Z,-1.79
2022-12-15T05:24:59.230Z,-1.76
2022-12-15T05:26:00.413Z,-1.79
2022-12-15T05:27:01.653Z,-1.81
2022-12-15T05:28:05.269Z,-1.80
2022-12-15T05:29:06.652Z,-1.81
2022-12-15T05:30:08.324Z,-1.82
2022-12-15T05:31:09.814Z,-1.81
2022-12-15T05:32:11.143Z,-1.82
2022-12-15T05:33:12.339Z,-1.84
2022-12-15T05:34:13.690Z,-1.83
2022-12-15T05:35:15.042Z,-1.80
2022-12-15T05:36:16.253Z,-1.82
2022-12-15T05:37:17.464Z,-1.86
2022-12-15T05:38:18.654Z,-1.86
2022-12-15T05:39:19.860Z,-1.87
2022-12-15T05:40:21.050Z,-1.86
2022-12-15T05:41:22.268Z,-1.88
2022-12-15T05:42:23.477Z,-1.83
2022-12-15T05:43:26.492Z,-1.82
2022-12-15T05:44:28.383Z,-1.78
2022-12-15T05:45:29.585Z,-1.75
2022-12-15T05:46:30.858Z,-1.79
2022-12-15T05:47:32.125Z,-1.83
2022-12-15T05:48:33.370Z,-1.85
2022-12-15T05:49:34.622Z,-1.82
2022-12-15T05:50:35.853Z,-1.79
2022-12-15T05:51:41.429Z,-1.82
2022-12-15T05:52:46.262Z,-1.80
2022-12-15T05:53:50.517Z,-1.82
2022-12-15T05:54:51.752Z,-1.83
2022-12-15T05:55:52.948Z,-1.84
2022-12-15T05:56:54.132Z,-1.83
2022-12-15T05:57:55.354Z,-1.80
2022-12-15T05:58:57.076Z,-1.80
2022-12-15T05:59:58.315Z,-1.78
2022-12-15T06:01:03.783Z,-1.78
2022-12-15T06:02:05.004Z,-1.78
2022-12-15T06:03:06.334Z,-1.75
2022-12-15T06:04:07.584Z,-1.73
2022-12-15T06:05:08.982Z,-1.74
2022-12-15T06:06:11.255Z,-1.76
2022-12-15T06:07:12.644Z,-1.79
2022-12-15T06:08:13.882Z,-1.76
2022-12-15T06:09:15.376Z,-1.75
2022-12-15T06:10:16.618Z,-1.78
2022-12-15T06:11:19.120Z,-1.70
2022-12-15T06:12:20.561Z,-1.71
2022-12-15T06:13:22.535Z,-1.74
2022-12-15T06:14:23.730Z,-1.77
2022-12-15T06:15:24.964Z,-1.78
2022-12-15T06:16:26.930Z,-1.78
2022-12-15T06:17:28.135Z,-1.78
2022-12-15T06:18:30.913Z,-1.73
2022-12-15T06:19:32.142Z,-1.77
2022-12-15T06:20:33.338Z,-1.73
2022-12-15T06:21:35.470Z,-1.75
2022-12-15T06:22:36.660Z,-1.75
2022-12-15T06:23:38.377Z,-1.75
2022-12-15T06:24:39.558Z,-1.74
2022-12-15T06:25:40.771Z,-1.71
2022-12-15T06:26:42.120Z,-1.72
2022-12-15T06:27:43.320Z,-1.70
2022-12-15T06:28:44.602Z,-1.71
2022-12-15T06:29:45.819Z,-1.74
2022-12-15T06:30:47.035Z,-1.71
2022-12-15T06:31:48.273Z,-1.73
2022-12-15T06:32:49.904Z,-1.73
2022-12-15T06:33:57.478Z,-1.74
2022-12-15T06:35:02.407Z,-1.74
2022-12-15T06:36:04.501Z,-1.75
2022-12-15T06:37:05.716Z,-1.76
2022-12-15T06:38:06.949Z,-1.75
2022-12-15T06:39:10.295Z,-1.78
2022-12-15T06:40:11.551Z,-1.79
2022-12-15T06:41:14.469Z,-1.73
2022-12-15T06:42:15.713Z,-1.73
2022-12-15T06:43:16.905Z,-1.74
2022-12-15T06:44:18.116Z,-1.77
2022-12-15T06:45:19.327Z,-1.79
2022-12-15T06:46:20.636Z,-1.75
2022-12-15T06:47:21.873Z,-1.74
2022-12-15T06:48:23.748Z,-1.73
2022-12-15T06:49:25.071Z,-1.74
2022-12-15T06:50:26.260Z,-1.71
2022-12-15T06:51:27.855Z,-1.61
2022-12-15T06:52:29.045Z,-1.60
2022-12-15T06:53:31.061Z,-1.53
2022-12-15T06:54:32.580Z,-1.57
2022-12-15T06:55:33.766Z,-1.62
2022-12-15T06:56:35.599Z,-1.65
2022-12-15T06:57:36.851Z,-1.68
2022-12-15T06:58:38.065Z,-1.71
2022-12-15T06:59:39.339Z,-1.65
2022-12-15T07:00:42.145Z,-1.64
2022-12-15T07:01:43.779Z,-1.62
2022-12-15T07:02:48.227Z,-1.66
2022-12-15T07:03:52.771Z,-1.69
2022-12-15T07:04:54.257Z,-1.71
2022-12-15T07:06:06.121Z,-1.72
2022-12-15T07:07:09.302Z,-1.75
2022-12-15T07:08:11.142Z,-1.67
2022-12-15T07:09:14.066Z,-1.67
2022-12-15T07:10:15.359Z,-1.69
2022-12-15T07:11:16.644Z,-1.66
2022-12-15T07:12:18.567Z,-1.62
2022-12-15T07:13:19.884Z,-1.58
2022-12-15T07:14:21.089Z,-1.62
2022-12-15T07:15:22.540Z,-1.66
2022-12-15T07:16:23.983Z,-1.64
2022-12-15T07:17:25.262Z,-1.65
2022-12-15T07:18:27.214Z,-1.65
2022-12-15T07:19:29.106Z,-1.65
2022-12-15T07:20:30.394Z,-1.60
2022-12-15T07:21:32.007Z,-1.65
2022-12-15T07:22:33.483Z,-1.67
2022-12-15T07:23:53.396Z,-1.61
2022-12-15T07:24:55.725Z,-1.61
2022-12-15T07:25:57.017Z,-1.67
2022-12-15T07:26:58.254Z,-1.67
2022-12-15T07:27:59.494Z,-1.65
2022-12-15T07:29:00.725Z,-1.63
2022-12-15T07:30:01.926Z,-1.60
2022-12-15T07:31:03.849Z,-1.59
2022-12-15T07:32:05.366Z,-1.60
2022-12-15T07:33:06.648Z,-1.61
2022-12-15T07:34:07.957Z,-1.58
2022-12-15T07:35:09.564Z,-1.49
2022-12-15T07:36:10.947Z,-1.49
2022-12-15T07:37:12.190Z,-1.45
2022-12-15T07:38:13.417Z,-1.41
2022-12-15T07:39:14.657Z,-1.45
2022-12-15T07:40:16.064Z,-1.51
2022-12-15T07:41:17.865Z,-1.52
2022-12-15T07:42:19.177Z,-1.51
2022-12-15T07:43:21.455Z,-1.49
2022-12-15T07:44:22.641Z,-1.43
2022-12-15T07:45:23.925Z,-1.38
2022-12-15T07:46:25.392Z,-1.38
2022-12-15T07:47:26.699Z,-1.41
2022-12-15T07:48:27.953Z,-1.41
2022-12-15T07:49:29.146Z,-1.46
2022-12-15T07:50:30.372Z,-1.38
2022-12-15T07:51:31.595Z,-1.39
2022-12-15T07:52:32.783Z,-1.40
2022-12-15T07:53:34.904Z,-1.38
2022-12-15T07:54:36.431Z,-1.38
2022-12-15T07:56:05.425Z,-1.29
2022-12-15T07:56:58.874Z,-1.28
2022-12-15T07:58:00.125Z,-1.29
2022-12-15T07:59:01.322Z,-1.27
2022-12-15T08:00:02.922Z,-1.25
2022-12-15T08:01:13.918Z,-1.19
2022-12-15T08:02:15.470Z,-1.15
2022-12-15T08:03:17.074Z,-1.22
2022-12-15T08:04:18.464Z,-1.20
2022-12-15T08:05:19.724Z,-1.20
2022-12-15T08:06:21.046Z,-1.14
2022-12-15T08:07:22.270Z,-1.15
2022-12-15T08:08:23.517Z,-1.16
2022-12-15T08:09:25.231Z,-1.18
2022-12-15T08:10:26.528Z,-1.18
2022-12-15T08:11:27.769Z,-1.16
2022-12-15T08:12:29.187Z,-1.15
2022-12-15T08:14:01.225Z,-1.16
2022-12-15T08:14:51.633Z,-1.11
2022-12-15T08:15:53.513Z,-1.11
2022-12-15T08:16:55.167Z,-1.07
2022-12-15T08:17:56.422Z,-1.04
2022-12-15T08:18:57.714Z,-1.04
2022-12-15T08:19:59.125Z,-1.00
2022-12-15T08:21:03.846Z,-0.97
2022-12-15T08:22:05.107Z,-0.94
2022-12-15T08:23:06.373Z,-0.95
2022-12-15T08:24:08.149Z,-0.89
2022-12-15T08:25:09.382Z,-0.93
2022-12-15T08:26:15.900Z,-0.91
2022-12-15T08:27:17.139Z,-0.90
2022-12-15T08:28:18.400Z,-0.96
2022-12-15T08:30:40.976Z,-0.96
2022-12-15T08:31:42.240Z,-0.97
2022-12-15T08:32:48.626Z,-0.93
2022-12-15T08:33:53.113Z,-0.89
2022-12-15T08:34:54.308Z,-0.95
2022-12-15T08:35:59.737Z,-0.96
2022-12-15T08:37:00.998Z,-0.92
2022-12-15T08:38:05.413Z,-0.95
2022-12-15T08:39:07.118Z,-0.91
2022-12-15T08:40:08.659Z,-0.85
2022-12-15T08:41:10.942Z,-0.81
2022-12-15T08:42:12.224Z,-0.80
2022-12-15T08:43:13.472Z,-0.77
2022-12-15T08:44:14.724Z,-0.76
2022-12-15T08:45:15.956Z,-0.75
2022-12-15T08:46:21.786Z,-0.73
2022-12-15T08:47:23.082Z,-0.70
2022-12-15T08:48:24.270Z,-0.64
2022-12-15T08:49:25.685Z,-0.61
2022-12-15T08:50:26.952Z,-0.60
2022-12-15T08:51:29.379Z,-0.56
2022-12-15T08:52:30.567Z,-0.61
2022-12-15T08:53:32.407Z,-0.66
2022-12-15T08:54:33.979Z,-0.65
2022-12-15T08:55:35.168Z,-0.61
2022-12-15T08:56:36.451Z,-0.56
2022-12-15T08:57:38.441Z,-0.51
2022-12-15T08:58:39.983Z,-0.46
2022-12-15T08:59:41.213Z,-0.41
2022-12-15T09:00:42.458Z,-0.36
2022-12-15T09:01:43.883Z,-0.35
2022-12-15T09:02:45.257Z,-0.36
2022-12-15T09:03:46.962Z,-0.39
2022-12-15T09:04:48.269Z,-0.33
2022-12-15T09:05:49.639Z,-0.30
2022-12-15T09:06:51.344Z,-0.31
2022-12-15T09:07:56.022Z,-0.32
2022-12-15T09:08:58.464Z,-0.29
2022-12-15T09:09:59.695Z,-0.28
2022-12-15T09:11:01.703Z,-0.25
2022-12-15T09:12:02.973Z,-0.21
2022-12-15T09:13:04.160Z,-0.24
2022-12-15T09:14:06.349Z,-0.24
2022-12-15T09:15:07.862Z,-0.29
2022-12-15T09:16:13.886Z,-0.26
2022-12-15T09:17:15.177Z,-0.28
2022-12-15T09:18:16.482Z,-0.29
2022-12-15T09:19:17.704Z,-0.35
2022-12-15T09:20:18.900Z,-0.36
2022-12-15T09:21:20.987Z,-0.32
2022-12-15T09:22:22.228Z,-0.25
2022-12-15T09:23:23.476Z,-0.18
2022-12-15T09:24:33.895Z,-0.16
2022-12-15T09:25:35.822Z,-0.10
2022-12-15T09:26:37.049Z,-0.13
2022-12-15T09:27:38.269Z,-0.19
2022-12-15T09:28:39.896Z,-0.19
2022-12-15T09:29:41.105Z,-0.27
2022-12-15T09:30:42.421Z,-0.32
2022-12-15T09:31:43.677Z,-0.27
2022-12-15T09:32:44.881Z,-0.21
2022-12-15T09:33:46.475Z,-0.13
2022-12-15T09:34:47.676Z,-0.13
2022-12-15T09:35:51.614Z,-0.16
2022-12-15T09:36:52.868Z,-0.23
2022-12-15T09:37:54.158Z,-0.22
2022-12-15T09:38:55.371Z,-0.22
2022-12-15T09:39:56.594Z,-0.17
2022-12-15T09:40:57.905Z,-0.14
2022-12-15T09:42:00.086Z,-0.12
2022-12-15T09:43:32.887Z,-0.13
2022-12-15T09:44:24.272Z,-0.11
2022-12-15T09:45:27.258Z,-0.17
2022-12-15T09:46:49.938Z,-0.16
2022-12-15T09:47:51.743Z,-0.12
2022-12-15T09:48:53.899Z,-0.09
2022-12-15T09:49:55.071Z,-0.03
2022-12-15T09:50:57.807Z,0.01
2022-12-15T09:52:10.778Z,0.00
2022-12-15T09:53:45.408Z,0.04
2022-12-15T09:54:35.112Z,0.05
2022-12-15T09:55:36.434Z,0.05
2022-12-15T09:56:40.419Z,0.07
2022-12-15T09:57:50.250Z,0.12
2022-12-15T09:59:08.267Z,0.10
2022-12-15T10:00:09.738Z,0.13
2022-12-15T10:01:17.812Z,0.18
2022-12-15T10:02:27.973Z,0.20
2022-12-15T10:03:34.511Z,0.23
2022-12-15T10:04:43.945Z,0.22
2022-12-15T10:06:20.035Z,0.26
2022-12-15T10:07:43.151Z,0.27
2022-12-15T10:08:47.177Z,0.29
2022-12-15T10:09:51.877Z,0.24
2022-12-15T10:10:56.105Z,0.32
2022-12-15T10:11:59.579Z,0.38
2022-12-15T10:13:06.726Z,0.45
2022-12-15T10:14:16.650Z,0.43
2022-12-15T10:15:25.916Z,0.45
2022-12-15T10:16:30.367Z,0.31
2022-12-15T10:17:42.125Z,0.32
2022-12-15T10:18:52.016Z,0.30
2022-12-15T10:20:00.902Z,0.32
2022-12-15T10:21:07.797Z,0.32
2022-12-15T10:22:11.626Z,0.30
2022-12-15T10:23:13.900Z,0.28
2022-12-15T10:24:44.443Z,0.21
2022-12-15T10:25:46.319Z,0.11
2022-12-15T10:26:56.104Z,0.10
2022-12-15T10:28:15.483Z,0.06
2022-12-15T10:29:37.048Z,0.08
2022-12-15T10:30:41.610Z,0.13
2022-12-15T10:31:52.134Z,0.15
2022-12-15T10:32:59.397Z,0.22
2022-12-15T10:34:11.076Z,0.27
2022-12-15T10:35:17.011Z,0.37
2022-12-15T10:36:18.261Z,0.42
2022-12-15T10:37:20.870Z,0.42
2022-12-15T10:38:39.019Z,0.44
2022-12-15T10:39:41.208Z,0.48
2022-12-15T10:40:44.635Z,0.52
2022-12-15T10:42:09.866Z,0.62
2022-12-15T10:43:17.581Z,0.72
2022-12-15T10:45:46.994Z,0.89
2022-12-15T10:46:54.466Z,0.94
2022-12-15T10:47:59.454Z,0.95
2022-12-15T10:49:06.791Z,0.99
2022-12-15T10:50:24.721Z,1.04
2022-12-15T10:51:30.550Z,1.07
2022-12-15T10:52:34.233Z,1.09
2022-12-15T10:53:43.095Z,1.08
2022-12-15T10:54:46.159Z,1.08
2022-12-15T10:55:59.354Z,1.04
2022-12-15T10:57:03.639Z,1.00
2022-12-15T10:58:15.391Z,0.95
2022-12-15T10:59:29.159Z,0.87
2022-12-15T11:00:31.555Z,0.83
2022-12-15T11:01:34.205Z,0.77
2022-12-15T11:02:35.877Z,0.72
2022-12-15T11:03:38.598Z,0.69
2022-12-15T11:04:40.712Z,0.69
2022-12-15T11:05:50.734Z,0.59
2022-12-15T11:06:55.904Z,0.61
2022-12-15T11:08:14.060Z,0.60
2022-12-15T11:09:32.090Z,0.58
2022-12-15T11:10:33.543Z,0.58
2022-12-15T11:11:35.777Z,0.63
2022-12-15T11:12:37.089Z,0.59
2022-12-15T11:13:39.188Z,0.53
2022-12-15T11:14:47.903Z,0.54
2022-12-15T11:15:52.765Z,0.56
2022-12-15T11:16:55.103Z,0.55
2022-12-15T11:18:02.176Z,0.48
2022-12-15T11:19:11.108Z,0.40
2022-12-15T11:20:19.651Z,0.40
2022-12-15T11:21:28.395Z,0.35
2022-12-15T11:22:48.565Z,0.45
2022-12-15T11:24:14.506Z,0.40
2022-12-15T11:25:38.159Z,0.44
2022-12-15T11:26:49.014Z,0.58
2022-12-15T11:27:51.614Z,0.61
2022-12-15T11:28:56.249Z,0.66
2022-12-15T11:30:19.013Z,0.68
2022-12-15T11:31:23.091Z,0.69
2022-12-15T11:32:25.872Z,0.64
2022-12-15T11:33:27.102Z,0.63
2022-12-15T11:34:38.881Z,0.59
2022-12-15T11:35:40.070Z,0.58
2022-12-15T11:36:44.430Z,0.58
2022-12-15T11:37:49.268Z,0.57
2022-12-15T11:38:58.724Z,0.59
2022-12-15T11:39:59.953Z,0.65
2022-12-15T11:41:10.156Z,0.68
2022-12-15T11:42:17.158Z,0.72
2022-12-15T11:43:34.171Z,0.66
2022-12-15T11:44:54.666Z,0.69
2022-12-15T11:46:02.140Z,0.59
2022-12-15T11:47:22.174Z,0.58
2022-12-15T11:48:41.642Z,0.62
2022-12-15T11:49:57.828Z,0.68
2022-12-15T11:50:59.046Z,0.68
2022-12-15T11:52:12.469Z,0.64
2022-12-15T11:53:22.917Z,0.70
2022-12-15T11:54:28.472Z,0.70
2022-12-15T11:55:48.614Z,0.60
2022-12-15T11:57:09.238Z,0.66
2022-12-15T11:58:19.240Z,0.70
2022-12-15T11:59:20.406Z,0.69
2022-12-15T12:00:22.204Z,0.58
2022-12-15T12:01:32.594Z,0.57
2022-12-15T12:02:36.647Z,0.62
2022-12-15T12:04:10.213Z,0.58
2022-12-15T12:05:29.724Z,0.53
2022-12-15T12:06:51.234Z,0.69
2022-12-15T12:07:58.793Z,0.74
2022-12-15T12:09:00.245Z,0.85
2022-12-15T12:10:05.011Z,0.83
2022-12-15T12:11:12.257Z,0.69
2022-12-15T12:12:20.833Z,0.74
2022-12-15T12:13:28.428Z,0.78
2022-12-15T12:14:50.581Z,0.86
2022-12-15T12:16:01.407Z,0.94
2022-12-15T12:17:02.701Z,1.00
2022-12-15T12:18:12.944Z,0.99
2022-12-15T12:19:24.685Z,0.97
2022-12-15T12:20:50.311Z,0.89
2022-12-15T12:21:55.112Z,0.94
2022-12-15T12:23:05.381Z,0.98
2022-12-15T12:24:14.135Z,1.02
2022-12-15T12:25:17.411Z,1.06
2022-12-15T12:26:26.424Z,1.04
2022-12-15T12:27:37.863Z,1.09
2022-12-15T12:28:46.668Z,1.11
2022-12-15T12:30:03.604Z,1.16
2022-12-15T12:31:09.139Z,1.20
2022-12-15T12:32:29.031Z,1.23
2022-12-15T12:33:33.302Z,1.18
2022-12-15T12:35:30.981Z,1.11
2022-12-15T12:36:28.304Z,0.97
2022-12-15T12:38:05.206Z,0.98
2022-12-15T12:39:06.764Z,1.03
2022-12-15T12:40:17.001Z,1.12
2022-12-15T12:41:30.496Z,1.15
2022-12-15T12:42:40.516Z,1.16
2022-12-15T12:43:50.519Z,1.20
2022-12-15T12:44:51.947Z,1.13
2022-12-15T12:45:55.751Z,0.97
2022-12-15T12:46:58.458Z,0.99
2022-12-15T12:48:03.275Z,0.92
2022-12-15T12:49:13.573Z,0.92
2022-12-15T12:50:18.623Z,0.91
2022-12-15T12:51:25.041Z,0.96
2022-12-15T12:52:29.232Z,1.05
2022-12-15T12:53:33.229Z,1.08
2022-12-15T12:54:37.737Z,1.12
2022-12-15T12:55:40.427Z,1.18
2022-12-15T12:56:41.701Z,1.07
2022-12-15T12:57:43.689Z,1.03
2022-12-15T12:58:44.946Z,1.15
2022-12-15T12:59:52.312Z,1.17
2022-12-15T13:01:16.944Z,1.22
2022-12-15T13:02:21.156Z,1.22
2022-12-15T13:03:22.396Z,1.33
2022-12-15T13:04:29.486Z,1.40
2022-12-15T13:05:35.728Z,1.52
2022-12-15T13:06:39.802Z,1.44
2022-12-15T13:07:42.107Z,1.33
2022-12-15T13:08:51.091Z,1.34
2022-12-15T13:10:14.175Z,1.33
2022-12-15T13:11:38.008Z,1.33
2022-12-15T13:13:00.661Z,1.31
2022-12-15T13:14:02.362Z,1.37
2022-12-15T13:15:10.809Z,1.39
2022-12-15T13:16:20.723Z,1.55
2022-12-15T13:17:32.296Z,1.59
2022-12-15T13:18:52.248Z,1.60
2022-12-15T13:19:56.228Z,1.55
2022-12-15T13:20:57.842Z,1.55
2022-12-15T13:22:00.412Z,1.48
2022-12-15T13:23:21.733Z,1.47
2022-12-15T13:24:30.731Z,1.46
2022-12-15T13:25:41.812Z,1.46
2022-12-15T13:26:43.603Z,1.34
2022-12-15T13:27:52.741Z,1.39
2022-12-15T13:28:56.497Z,1.36
2022-12-15T13:30:00.888Z,1.30
2022-12-15T13:31:24.060Z,1.29
2022-12-15T13:32:33.140Z,1.16
2022-12-15T13:33:44.094Z,1.28
2022-12-15T13:34:49.612Z,1.18
2022-12-15T13:35:52.143Z,1.16
2022-12-15T13:36:55.704Z,1.11
2022-12-15T13:38:02.058Z,1.14
2022-12-15T13:39:05.137Z,1.13
2022-12-15T13:40:36.173Z,1.17
2022-12-15T13:41:37.726Z,1.16
2022-12-15T13:42:51.224Z,1.11
2022-12-15T13:43:57.499Z,1.11
2022-12-15T13:45:11.466Z,1.12
2022-12-15T13:46:19.220Z,1.15
2022-12-15T13:47:24.887Z,1.20
2022-12-15T13:48:49.339Z,1.22
2022-12-15T13:51:27.733Z,1.37
2022-12-15T13:53:16.585Z,1.39
2022-12-15T13:54:00.822Z,1.38
2022-12-15T13:55:05.714Z,1.34
2022-12-15T13:56:11.140Z,1.35
2022-12-15T13:57:14.544Z,1.28
2022-12-15T13:58:17.752Z,1.24
2022-12-15T13:59:31.101Z,1.13
2022-12-15T14:00:32.705Z,1.11
2022-12-15T14:01:38.858Z,1.09
2022-12-15T14:02:45.096Z,1.08